Time;durP1;ratioP1;P1;durP2;ratioP2;P2;SDS_P1;SDS_P2;PMS_P1;PMS_P2;Temp;Humidity;BMP_temperature;BMP_pressure;BME280_temperature;BME280_humidity;BME280_pressure;Samples;Min_cycle;Max_cycle;Signal;HPM_P1;HPM_P2
2022/06/13 00:00:20;;;;;;;64.70;51.00;;;22.60;54.00;;;;;;4914160;28;90551;-57
2022/06/13 00:02:46;;;;;;;64.55;50.92;;;22.60;54.50;;;;;;4919317;28;92178;-58
2022/06/13 00:05:12;;;;;;;65.63;51.08;;;22.60;54.00;;;;;;4910873;28;90622;-57
2022/06/13 00:07:38;;;;;;;65.30;50.92;;;22.60;54.00;;;;;;4921026;28;91455;-57
2022/06/13 00:10:04;;;;;;;65.50;51.03;;;22.60;54.10;;;;;;4913760;28;90782;-60
2022/06/13 00:12:30;;;;;;;64.97;50.85;;;22.60;54.10;;;;;;4919131;28;90189;-59
2022/06/13 00:14:56;;;;;;;66.45;50.97;;;22.70;54.00;;;;;;4928413;28;89897;-60
2022/06/13 00:17:21;;;;;;;64.90;51.15;;;22.60;54.00;;;;;;4921028;28;92344;-59
2022/06/13 00:19:47;;;;;;;65.70;51.00;;;22.60;54.00;;;;;;4911737;28;91499;-60
2022/06/13 00:22:12;;;;;;;67.15;50.85;;;22.60;54.00;;;;;;4922334;28;90459;-57
2022/06/13 00:24:38;;;;;;;65.00;51.05;;;22.60;54.10;;;;;;4925712;28;90077;-59
2022/06/13 00:27:05;;;;;;;65.78;50.83;;;22.60;54.20;;;;;;4916220;28;93883;-59
2022/06/13 00:29:31;;;;;;;65.30;50.75;;;22.50;54.10;;;;;;4916536;28;95979;-61
2022/06/13 00:31:57;;;;;;;64.60;50.85;;;22.60;54.30;;;;;;4923569;28;89575;-57
2022/06/13 00:34:22;;;;;;;66.20;50.92;;;22.60;54.20;;;;;;4925600;28;90497;-59
2022/06/13 00:36:48;;;;;;;65.18;51.13;;;22.60;54.20;;;;;;4914567;28;90122;-59
2022/06/13 00:39:14;;;;;;;65.82;51.35;;;22.60;54.20;;;;;;4920544;28;92583;-57
2022/06/13 00:41:42;;;;;;;63.80;50.85;;;22.60;54.20;;;;;;4916264;28;90721;-58
2022/06/13 00:44:29;;;;;;;63.65;50.78;;;22.60;54.30;;;;;;4913774;28;90849;-60
2022/06/13 00:46:56;;;;;;;64.32;50.92;;;22.50;54.30;;;;;;4923033;28;90300;-60
2022/06/13 00:49:29;;;;;;;65.55;51.25;;;22.50;54.40;;;;;;4917781;28;90287;-59
2022/06/13 00:52:09;;;;;;;64.70;51.03;;;22.50;54.40;;;;;;4927904;28;91232;-58
2022/06/13 00:54:37;;;;;;;64.75;50.78;;;22.50;54.40;;;;;;4927009;28;90158;-59
2022/06/13 00:57:06;;;;;;;65.03;50.90;;;22.50;54.50;;;;;;4924118;28;90780;-59
2022/06/13 00:59:36;;;;;;;65.07;51.00;;;22.50;54.40;;;;;;4926511;28;89907;-60
2022/06/13 01:02:03;;;;;;;64.85;50.78;;;22.60;54.50;;;;;;4928784;28;90745;-60
2022/06/13 01:04:28;;;;;;;65.65;50.92;;;22.50;54.40;;;;;;4925768;28;90132;-58
2022/06/13 01:06:57;;;;;;;66.28;50.97;;;22.50;54.60;;;;;;4920399;28;90022;-59
2022/06/13 01:11:16;;;;;;;66.15;50.95;;;22.50;54.60;;;;;;4930789;28;89379;-58
2022/06/13 01:12:10;;;;;;;64.82;50.92;;;22.40;54.50;;;;;;4920677;28;92831;-61
2022/06/13 01:14:58;;;;;;;65.25;50.85;;;22.50;54.50;;;;;;4924932;28;90477;-58
2022/06/13 01:17:41;;;;;;;66.78;50.92;;;22.50;54.60;;;;;;4922311;28;91869;-58
2022/06/13 01:20:28;;;;;;;63.38;50.72;;;22.50;54.60;;;;;;4923264;28;91021;-59
2022/06/13 01:23:44;;;;;;;65.35;51.05;;;22.40;54.70;;;;;;4922812;28;90623;-58
2022/06/13 01:26:37;;;;;;;65.03;50.92;;;22.50;54.70;;;;;;4832769;28;92644;-59
2022/06/13 01:29:14;;;;;;;64.55;51.08;;;22.40;55.00;;;;;;4844125;28;92348;-59
2022/06/13 01:31:59;;;;;;;66.85;50.65;;;22.40;54.90;;;;;;4909112;28;90237;-60
2022/06/13 01:34:49;;;;;;;63.45;50.38;;;22.40;54.90;;;;;;4929560;28;90016;-59
2022/06/13 01:37:23;;;;;;;65.45;51.20;;;22.40;54.90;;;;;;4918587;28;90172;-56
2022/06/13 01:40:06;;;;;;;63.65;50.35;;;22.40;54.90;;;;;;4921761;28;96314;-60
2022/06/13 01:43:03;;;;;;;65.82;50.85;;;22.40;54.90;;;;;;4909248;28;90311;-56
2022/06/13 01:46:08;;;;;;;64.38;50.85;;;22.40;54.80;;;;;;4917032;28;90933;-53
2022/06/13 01:48:58;;;;;;;64.47;50.80;;;22.40;55.00;;;;;;4918034;28;96391;-59
2022/06/13 01:51:27;;;;;;;66.70;51.40;;;22.40;55.00;;;;;;4916761;28;89878;-58
2022/06/13 01:54:05;;;;;;;64.47;50.70;;;22.40;55.00;;;;;;4922345;28;95069;-57
2022/06/13 01:56:39;;;;;;;65.85;51.05;;;22.40;54.90;;;;;;4922953;28;90028;-59
2022/06/13 01:59:37;;;;;;;63.72;50.78;;;22.40;54.70;;;;;;4921245;28;90409;-56
2022/06/13 02:02:17;;;;;;;64.75;50.95;;;22.40;54.80;;;;;;4926659;28;98694;-60
2022/06/13 02:05:24;;;;;;;64.35;50.53;;;22.40;54.90;;;;;;4922116;28;93245;-57
2022/06/13 02:07:57;;;;;;;66.00;50.85;;;22.30;55.10;;;;;;4918388;28;89953;-56
2022/06/13 02:10:30;;;;;;;66.53;51.13;;;22.30;55.00;;;;;;4919435;28;91343;-58
2022/06/13 02:13:06;;;;;;;64.45;50.50;;;22.40;55.20;;;;;;4918787;28;95014;-57
2022/06/13 02:15:39;;;;;;;65.30;51.15;;;22.40;55.10;;;;;;4921995;28;90587;-58
2022/06/13 02:18:17;;;;;;;64.75;50.80;;;22.30;55.20;;;;;;4921598;28;93275;-59
2022/06/13 02:20:49;;;;;;;65.45;50.85;;;22.30;55.10;;;;;;4918444;28;90594;-59
2022/06/13 02:23:22;;;;;;;66.43;51.00;;;22.30;55.10;;;;;;4915412;28;91747;-58
2022/06/13 02:26:00;;;;;;;66.10;51.10;;;22.40;55.10;;;;;;4916806;28;92201;-56
2022/06/13 02:28:33;;;;;;;63.28;50.75;;;22.30;55.10;;;;;;4918209;28;90703;-58
2022/06/13 02:31:03;;;;;;;63.55;50.65;;;22.30;55.20;;;;;;4923570;28;89980;-60
2022/06/13 02:33:56;;;;;;;65.70;50.75;;;22.30;55.20;;;;;;4919901;28;90111;-59
2022/06/13 02:36:37;;;;;;;66.20;50.78;;;22.30;55.30;;;;;;4916645;28;90392;-59
2022/06/13 02:39:15;;;;;;;;;;;22.30;55.30;;;;;;4922370;28;93008;-58
2022/06/13 02:41:53;;;;;;;65.20;50.75;;;22.30;55.20;;;;;;4925597;28;91879;-57
2022/06/13 02:44:37;;;;;;;64.55;50.78;;;22.30;55.20;;;;;;4913199;28;92004;-59
2022/06/13 02:47:10;;;;;;;64.38;50.65;;;22.20;55.40;;;;;;4923180;28;91901;-60
2022/06/13 02:49:42;;;;;;;64.57;50.58;;;22.20;55.50;;;;;;4910509;28;91283;-53
2022/06/13 02:52:13;;;;;;;65.05;50.85;;;22.20;55.60;;;;;;4923788;28;90338;-60
2022/06/13 02:54:55;;;;;;;64.07;50.75;;;22.20;55.60;;;;;;4926573;28;94275;-57
2022/06/13 02:57:55;;;;;;;65.18;50.95;;;22.20;55.60;;;;;;4913533;28;89242;-58
2022/06/13 03:00:52;;;;;;;63.92;50.80;;;22.20;55.50;;;;;;4915855;28;90092;-59
2022/06/13 03:03:39;;;;;;;64.57;50.88;;;22.10;55.60;;;;;;4915510;28;90524;-58
2022/06/13 03:06:13;;;;;;;65.50;50.67;;;22.20;55.70;;;;;;4908334;28;93760;-55
2022/06/13 03:08:50;;;;;;;63.50;50.78;;;22.20;55.60;;;;;;4923591;28;90836;-59
2022/06/13 03:11:25;;;;;;;66.15;50.42;;;22.20;55.60;;;;;;4916082;28;92489;-59
2022/06/13 03:13:59;;;;;;;64.10;50.53;;;22.10;56.30;;;;;;4923926;28;94254;-58
2022/06/13 03:16:32;;;;;;;66.10;50.85;;;22.10;55.70;;;;;;4921888;28;90313;-58
2022/06/13 03:19:08;;;;;;;63.75;50.65;;;22.10;55.80;;;;;;4918015;28;91116;-56
2022/06/13 03:21:38;;;;;;;65.55;51.05;;;22.10;55.80;;;;;;4929307;28;90628;-59
2022/06/13 03:24:41;;;;;;;63.67;50.72;;;22.10;55.70;;;;;;4931124;28;89896;-55
2022/06/13 03:27:25;;;;;;;64.20;50.67;;;22.10;55.80;;;;;;4932124;28;90519;-54
2022/06/13 03:30:00;;;;;;;63.50;50.40;;;22.20;55.70;;;;;;4920770;28;90041;-57
2022/06/13 03:32:31;;;;;;;63.22;50.55;;;22.10;55.70;;;;;;4923286;28;90804;-56
2022/06/13 03:35:01;;;;;;;65.88;51.03;;;22.10;55.80;;;;;;4929552;28;90348;-59
2022/06/13 03:37:38;;;;;;;63.97;50.58;;;22.10;56.00;;;;;;4924287;28;93062;-59
2022/06/13 03:40:09;;;;;;;63.95;50.90;;;22.00;56.10;;;;;;4929073;28;90663;-54
2022/06/13 03:42:46;;;;;;;63.22;50.63;;;22.00;56.10;;;;;;4926922;28;89910;-59
2022/06/13 03:45:24;;;;;;;64.82;50.55;;;22.00;56.10;;;;;;4919507;28;91825;-56
2022/06/13 03:47:58;;;;;;;62.95;50.63;;;22.00;56.00;;;;;;4922421;28;91485;-57
2022/06/13 03:50:38;;;;;;;63.13;50.35;;;22.10;55.90;;;;;;4921925;28;91104;-59
2022/06/13 03:53:34;;;;;;;64.35;50.65;;;22.00;55.70;;;;;;4930897;28;92192;-57
2022/06/13 03:56:00;;;;;;;64.18;50.65;;;22.00;55.90;;;;;;4924341;28;90203;-58
2022/06/13 03:58:48;;;;;;;64.50;50.30;;;22.10;55.90;;;;;;4924105;28;93064;-57
2022/06/13 04:01:19;;;;;;;63.50;50.67;;;22.00;56.00;;;;;;4908388;28;93900;-59
2022/06/13 04:03:45;;;;;;;66.50;50.80;;;22.00;56.00;;;;;;4924320;28;91810;-58
2022/06/13 04:06:31;;;;;;;62.85;50.53;;;21.90;56.20;;;;;;4929659;28;90675;-57
2022/06/13 04:09:00;;;;;;;64.75;50.88;;;21.90;56.30;;;;;;4933012;28;91772;-58
2022/06/13 04:11:58;;;;;;;63.33;50.47;;;21.90;56.30;;;;;;4925829;28;90782;-59
2022/06/13 04:14:56;;;;;;;64.50;50.47;;;21.90;56.20;;;;;;4933622;28;89872;-59
2022/06/13 04:18:04;;;;;;;64.45;50.60;;;21.90;56.10;;;;;;4916647;28;90137;-56
2022/06/13 04:20:35;;;;;;;64.00;50.35;;;21.90;56.30;;;;;;4926405;28;90586;-59
2022/06/13 04:23:01;;;;;;;;;;;21.90;56.30;;;;;;4934591;28;90088;-56
2022/06/13 04:25:41;;;;;;;63.72;50.35;;;21.90;56.40;;;;;;4937837;28;91763;-59
2022/06/13 04:28:22;;;;;;;63.53;50.10;;;21.90;56.30;;;;;;4928387;28;90326;-57
2022/06/13 04:30:51;;;;;;;64.63;50.85;;;21.80;56.40;;;;;;4930321;28;90483;-59
2022/06/13 04:33:29;;;;;;;63.28;50.60;;;21.80;56.60;;;;;;4922598;28;91391;-55
2022/06/13 04:35:56;;;;;;;64.30;50.67;;;21.80;56.80;;;;;;4929302;28;89776;-57
2022/06/13 04:38:24;;;;;;;65.32;51.08;;;21.70;56.80;;;;;;4930782;28;92542;-59
2022/06/13 04:40:58;;;;;;;62.42;50.55;;;21.70;56.80;;;;;;4925350;28;91067;-57
2022/06/13 04:43:28;;;;;;;64.70;50.47;;;21.70;56.90;;;;;;4938350;28;91130;-58
2022/06/13 04:46:04;;;;;;;63.28;50.47;;;21.70;56.70;;;;;;4927260;28;92734;-59
2022/06/13 04:48:31;;;;;;;63.67;50.47;;;21.70;56.90;;;;;;4919666;28;89652;-58
2022/06/13 04:51:01;;;;;;;66.03;50.78;;;21.80;57.00;;;;;;4929646;28;92027;-59
2022/06/13 04:53:52;;;;;;;65.55;50.55;;;21.70;56.70;;;;;;4931756;28;90713;-58
2022/06/13 04:56:20;;;;;;;65.10;50.50;;;21.70;57.00;;;;;;4919269;28;90285;-57
2022/06/13 04:58:47;;;;;;;64.18;50.35;;;21.70;56.90;;;;;;4923272;28;92335;-54
2022/06/13 05:01:34;;;;;;;64.57;50.42;;;21.70;56.90;;;;;;4930811;28;90296;-57
2022/06/13 05:04:02;;;;;;;64.38;50.45;;;21.60;56.90;;;;;;4928618;28;91127;-56
2022/06/13 05:06:43;;;;;;;65.03;50.72;;;21.70;56.80;;;;;;4935979;28;90296;-55
2022/06/13 05:09:17;;;;;;;63.67;50.70;;;21.70;56.80;;;;;;4927946;28;90492;-56
2022/06/13 05:11:43;;;;;;;63.47;50.80;;;21.80;56.80;;;;;;4926342;28;90420;-54
2022/06/13 05:14:24;;;;;;;63.17;50.53;;;21.80;56.70;;;;;;4924240;28;90195;-55
2022/06/13 05:17:05;;;;;;;65.07;50.38;;;21.90;56.50;;;;;;4925616;28;91869;-58
2022/06/13 05:19:52;;;;;;;64.95;50.53;;;21.80;56.70;;;;;;4927317;28;91538;-55
2022/06/13 05:22:32;;;;;;;65.63;50.95;;;21.80;56.40;;;;;;4931643;28;91417;-53
2022/06/13 05:25:23;;;;;;;66.67;50.67;;;21.80;56.40;;;;;;4928821;28;90115;-58
2022/06/13 05:27:49;;;;;;;66.72;50.72;;;21.90;56.40;;;;;;4912132;28;98140;-59
2022/06/13 05:30:16;;;;;;;65.25;50.55;;;21.90;56.30;;;;;;4929321;28;89836;-56
2022/06/13 05:32:43;;;;;;;64.95;50.63;;;22.00;56.20;;;;;;4926258;28;90326;-57
2022/06/13 05:35:21;;;;;;;65.63;51.03;;;22.00;56.60;;;;;;4932817;28;89862;-58
2022/06/13 05:37:48;;;;;;;63.00;50.45;;;22.00;56.90;;;;;;4930866;28;89529;-59
2022/06/13 05:40:19;;;;;;;63.20;50.47;;;22.00;56.70;;;;;;4935795;28;90277;-56
2022/06/13 05:42:46;;;;;;;63.97;50.65;;;22.10;56.20;;;;;;4929467;28;91330;-57
2022/06/13 05:45:15;;;;;;;66.10;50.33;;;22.00;56.50;;;;;;4932388;28;90894;-56
2022/06/13 05:47:42;;;;;;;64.88;50.90;;;21.90;56.70;;;;;;4916809;28;94955;-59
2022/06/13 05:50:23;;;;;;;64.45;50.55;;;22.00;56.70;;;;;;4927986;28;89819;-56
2022/06/13 05:52:49;;;;;;;;;;;21.90;56.70;;;;;;4933327;28;89914;-58
2022/06/13 05:55:15;;;;;;;67.38;50.45;;;22.00;56.80;;;;;;4939216;28;89537;-58
2022/06/13 05:57:40;;;;;;;65.93;50.95;;;22.00;56.60;;;;;;4920096;28;90253;-58
2022/06/13 06:00:14;;;;;;;65.22;50.95;;;22.00;56.80;;;;;;4927571;28;89146;-55
2022/06/13 06:02:40;;;;;;;65.13;50.63;;;22.00;56.70;;;;;;4913432;28;91865;-58
2022/06/13 06:05:06;;;;;;;65.13;51.03;;;22.00;56.80;;;;;;4932488;28;90315;-57
2022/06/13 06:07:33;;;;;;;65.60;50.85;;;21.90;56.60;;;;;;4919234;28;91134;-56
2022/06/13 06:10:00;;;;;;;66.30;50.63;;;21.90;56.70;;;;;;4930141;28;90314;-58
2022/06/13 06:12:25;;;;;;;63.85;50.58;;;21.90;57.00;;;;;;4932480;28;90333;-57
2022/06/13 06:14:51;;;;;;;65.00;50.72;;;21.90;56.90;;;;;;4921445;28;90983;-55
2022/06/13 06:17:16;;;;;;;65.63;50.65;;;21.90;57.00;;;;;;4934040;28;89862;-54
2022/06/13 06:19:42;;;;;;;65.00;51.05;;;21.90;56.90;;;;;;4932352;28;89569;-56
2022/06/13 06:22:08;;;;;;;65.40;50.72;;;21.80;56.40;;;;;;4932748;28;90007;-54
2022/06/13 06:24:33;;;;;;;66.68;51.03;;;21.80;56.80;;;;;;4932665;28;89726;-57
2022/06/13 06:26:59;;;;;;;65.55;50.67;;;21.80;56.80;;;;;;4934690;28;90041;-58
2022/06/13 06:29:25;;;;;;;65.65;50.90;;;21.80;57.70;;;;;;4923898;28;89984;-55
2022/06/13 06:31:50;;;;;;;63.05;50.55;;;21.80;57.20;;;;;;4932340;28;91716;-58
2022/06/13 06:34:17;;;;;;;65.75;50.83;;;21.90;57.30;;;;;;4933751;28;91049;-58
2022/06/13 06:36:42;;;;;;;66.57;51.05;;;21.90;57.20;;;;;;4931914;28;89936;-59
2022/06/13 06:39:08;;;;;;;66.20;50.63;;;21.90;57.00;;;;;;4926670;28;89814;-58
2022/06/13 06:41:34;;;;;;;64.63;50.50;;;21.90;56.90;;;;;;4933909;28;89839;-53
2022/06/13 06:44:00;;;;;;;64.35;50.75;;;21.90;56.40;;;;;;4928833;28;90452;-57
2022/06/13 06:46:26;;;;;;;65.13;50.80;;;21.80;57.40;;;;;;4931668;28;92337;-56
2022/06/13 06:48:51;;;;;;;66.20;50.83;;;21.80;57.10;;;;;;4922159;28;90967;-58
2022/06/13 06:51:17;;;;;;;64.78;50.90;;;21.80;57.10;;;;;;4929988;28;90088;-58
2022/06/13 07:01:57;;;;;;;63.58;50.22;;;21.90;57.00;;;;;;4934473;28;89759;-59
2022/06/13 07:04:22;;;;;;;66.25;50.70;;;21.90;56.70;;;;;;4929995;28;91555;-59
2022/06/13 07:06:48;;;;;;;62.55;50.00;;;21.80;57.10;;;;;;4930333;28;90093;-56
2022/06/13 07:09:13;;;;;;;65.93;50.55;;;21.90;57.00;;;;;;4930589;28;90930;-57
2022/06/13 07:11:54;;;;;;;65.95;50.67;;;21.80;57.00;;;;;;4936391;28;90424;-58
2022/06/13 07:14:34;;;;;;;65.45;50.20;;;21.80;56.50;;;;;;4926305;28;89363;-59
2022/06/13 07:17:03;;;;;;;64.43;50.60;;;21.70;57.00;;;;;;4932410;28;91834;-59
2022/06/13 07:19:29;;;;;;;64.22;50.67;;;21.80;57.30;;;;;;4928831;28;90270;-57
2022/06/13 07:21:55;;;;;;;63.72;50.28;;;21.80;57.30;;;;;;4933937;28;91385;-56
2022/06/13 07:24:22;;;;;;;64.03;50.85;;;21.80;57.20;;;;;;4936057;28;90137;-56
2022/06/13 07:26:48;;;;;;;65.70;50.42;;;21.90;57.30;;;;;;4925235;28;90155;-56
2022/06/13 07:29:17;;;;;;;63.85;50.17;;;21.90;57.10;;;;;;4931177;28;89705;-57
2022/06/13 07:31:48;;;;;;;64.32;50.35;;;21.90;56.90;;;;;;4918173;28;98526;-60
2022/06/13 07:34:20;;;;;;;66.53;50.63;;;21.90;57.00;;;;;;4927824;28;90035;-57
2022/06/13 07:36:46;;;;;;;65.25;50.58;;;21.80;56.90;;;;;;4925404;28;93605;-56
2022/06/13 07:39:12;;;;;;;64.72;50.65;;;21.90;57.20;;;;;;4928096;28;90857;-59
2022/06/13 07:41:39;;;;;;;65.18;50.70;;;21.90;57.20;;;;;;4931698;28;91659;-58
2022/06/13 07:44:07;;;;;;;64.80;50.55;;;21.90;56.70;;;;;;4929258;28;92635;-56
2022/06/13 07:46:33;;;;;;;65.28;50.50;;;21.80;56.90;;;;;;4930160;28;91275;-55
2022/06/13 07:48:59;;;;;;;65.18;50.53;;;21.80;57.10;;;;;;4921454;28;89824;-55
2022/06/13 07:51:26;;;;;;;64.97;50.55;;;21.80;57.20;;;;;;4923527;28;91023;-57
2022/06/13 07:53:52;;;;;;;63.67;50.67;;;21.90;57.00;;;;;;4922545;28;90612;-57
2022/06/13 07:56:24;;;;;;;64.60;50.50;;;21.90;57.20;;;;;;4926792;28;89761;-55
2022/06/13 07:58:53;;;;;;;65.03;50.72;;;22.00;57.30;;;;;;4929665;28;93659;-57
2022/06/13 08:01:20;;;;;;;64.57;50.63;;;21.90;57.10;;;;;;4929065;28;90877;-59
2022/06/13 08:03:46;;;;;;;64.97;50.85;;;22.00;57.20;;;;;;4930531;28;89951;-58
2022/06/13 08:06:12;;;;;;;64.95;50.80;;;21.90;57.20;;;;;;4926457;28;91192;-59
2022/06/13 08:08:40;;;;;;;65.55;50.92;;;21.90;57.60;;;;;;4929647;28;91197;-59
2022/06/13 08:11:08;;;;;;;64.40;50.63;;;21.90;57.50;;;;;;4936253;28;90763;-59
2022/06/13 08:13:36;;;;;;;66.55;51.00;;;22.00;57.30;;;;;;4932801;28;91298;-59
2022/06/13 08:16:02;;;;;;;66.22;50.67;;;22.00;57.50;;;;;;4930338;28;90614;-56
2022/06/13 08:18:28;;;;;;;65.72;50.75;;;22.10;57.00;;;;;;4935943;28;90026;-57
2022/06/13 08:20:54;;;;;;;65.15;50.80;;;22.20;56.90;;;;;;4924847;28;90785;-58
2022/06/13 08:23:21;;;;;;;65.53;50.92;;;22.20;56.80;;;;;;4937263;28;90651;-56
2022/06/13 08:25:48;;;;;;;64.75;50.78;;;22.30;56.70;;;;;;4933382;28;90310;-60
2022/06/13 08:28:14;;;;;;;65.22;50.90;;;22.40;56.80;;;;;;4934397;28;88733;-55
2022/06/13 08:30:54;;;;;;;63.78;50.25;;;22.50;56.70;;;;;;4927106;28;90448;-57
2022/06/13 08:33:20;;;;;;;63.65;50.47;;;22.40;56.30;;;;;;4931727;28;90108;-58
2022/06/13 08:35:46;;;;;;;64.22;50.55;;;22.20;56.60;;;;;;4932144;28;90667;-57
2022/06/13 08:38:12;;;;;;;64.63;50.65;;;22.30;57.00;;;;;;4929535;28;89506;-58
2022/06/13 08:40:57;;;;;;;64.10;50.65;;;22.30;57.00;;;;;;4930164;28;90981;-58
2022/06/13 08:44:00;;;;;;;63.65;50.42;;;22.30;57.00;;;;;;4930399;28;89879;-59
2022/06/13 08:46:51;;;;;;;66.57;50.55;;;22.30;57.00;;;;;;4924212;28;90249;-58
2022/06/13 08:49:37;;;;;;;64.05;50.50;;;22.40;56.50;;;;;;4932761;28;89831;-57
2022/06/13 08:52:24;;;;;;;64.45;50.65;;;22.50;56.70;;;;;;4923349;28;89939;-55
2022/06/13 08:55:12;;;;;;;65.07;50.72;;;22.60;56.40;;;;;;4927862;28;93976;-55
2022/06/13 08:57:59;;;;;;;65.30;50.58;;;22.40;56.00;;;;;;4929432;28;90578;-55
2022/06/13 09:00:28;;;;;;;65.93;50.65;;;22.40;56.00;;;;;;4922851;28;90831;-58
2022/06/13 09:03:11;;;;;;;64.70;50.53;;;22.50;56.30;;;;;;4925896;28;90869;-59
2022/06/13 09:06:03;;;;;;;64.65;50.45;;;22.50;55.90;;;;;;4927290;28;90821;-57
2022/06/13 09:08:55;;;;;;;65.80;50.53;;;22.50;56.30;;;;;;4925252;28;90053;-56
2022/06/13 09:11:28;;;;;;;66.22;50.47;;;22.60;56.40;;;;;;4932541;28;90568;-56
2022/06/13 09:14:08;;;;;;;63.70;50.38;;;22.60;56.00;;;;;;4929667;28;90572;-56
2022/06/13 09:16:35;;;;;;;64.95;50.65;;;22.70;56.20;;;;;;4918698;28;91227;-57
2022/06/13 09:19:12;;;;;;;63.40;50.63;;;22.70;56.20;;;;;;4932020;28;90147;-56
2022/06/13 09:21:49;;;;;;;66.50;50.75;;;22.70;55.90;;;;;;4926347;28;89488;-57
2022/06/13 09:24:24;;;;;;;64.32;50.35;;;22.70;56.10;;;;;;4929509;28;92977;-57
2022/06/13 09:27:10;;;;;;;65.35;50.70;;;22.80;56.00;;;;;;4926156;28;94574;-58
2022/06/13 09:29:55;;;;;;;64.38;50.47;;;22.90;55.80;;;;;;4927461;28;91033;-53
2022/06/13 09:32:41;;;;;;;63.75;50.60;;;22.80;55.90;;;;;;4931410;28;90364;-57
2022/06/13 09:35:12;;;;;;;63.55;50.55;;;22.80;56.00;;;;;;4930796;28;90433;-59
2022/06/13 09:37:48;;;;;;;;;;;22.80;56.00;;;;;;4930006;28;89447;-58
2022/06/13 09:40:18;;;;;;;63.67;50.50;;;22.80;56.00;;;;;;4922350;28;93008;-56
2022/06/13 09:42:48;;;;;;;64.60;50.45;;;22.80;56.20;;;;;;4932227;28;89972;-58
2022/06/13 09:45:33;;;;;;;64.78;50.45;;;22.80;56.00;;;;;;4926962;28;90600;-57
2022/06/13 09:48:14;;;;;;;64.25;50.50;;;22.90;56.00;;;;;;4936822;28;89299;-59
2022/06/13 09:51:05;;;;;;;63.15;50.38;;;22.90;56.00;;;;;;4914527;28;90213;-54
2022/06/13 09:53:34;;;;;;;64.57;50.53;;;22.90;55.80;;;;;;4934571;28;90334;-56
2022/06/13 09:56:18;;;;;;;65.05;51.03;;;22.90;55.90;;;;;;4931316;28;91922;-56
2022/06/13 09:59:02;;;;;;;64.43;50.92;;;23.00;55.90;;;;;;4923399;28;89768;-60
2022/06/13 10:01:43;;;;;;;63.63;50.63;;;22.90;56.00;;;;;;4926522;28;90685;-57
2022/06/13 10:04:15;;;;;;;64.05;50.25;;;22.90;55.80;;;;;;4932990;28;89817;-54
2022/06/13 10:06:47;;;;;;;63.25;50.47;;;22.90;55.70;;;;;;4917567;28;90764;-55
2022/06/13 10:09:15;;;;;;;63.78;50.60;;;22.90;56.00;;;;;;4929015;28;89485;-56
2022/06/13 10:11:56;;;;;;;64.00;50.83;;;22.90;55.80;;;;;;4934235;28;89992;-57
2022/06/13 10:15:02;;;;;;;63.27;50.33;;;22.90;56.10;;;;;;4928866;28;90966;-57
2022/06/13 10:17:33;;;;;;;64.70;50.55;;;23.00;55.90;;;;;;4927394;28;91208;-56
2022/06/13 10:20:20;;;;;;;65.63;50.75;;;23.00;55.80;;;;;;4930699;28;90066;-57
2022/06/13 10:23:10;;;;;;;64.85;50.63;;;23.00;55.50;;;;;;4925933;28;92236;-58
2022/06/13 10:26:10;;;;;;;65.38;50.65;;;23.00;55.90;;;;;;4927574;28;89984;-59
2022/06/13 10:29:07;;;;;;;66.78;50.75;;;23.00;55.90;;;;;;4933017;28;90230;-56
2022/06/13 10:31:44;;;;;;;65.03;50.53;;;23.00;56.00;;;;;;4889731;28;90853;-58
2022/06/13 10:34:38;;;;;;;63.45;50.50;;;23.00;55.90;;;;;;4935362;28;91421;-56
2022/06/13 10:37:36;;;;;;;64.50;50.63;;;23.00;55.70;;;;;;4922457;28;89700;-55
2022/06/13 10:40:04;;;;;;;63.92;50.80;;;23.00;56.00;;;;;;4916988;28;93125;-60
2022/06/13 10:42:33;;;;;;;64.93;50.67;;;23.00;56.00;;;;;;4919235;28;90996;-57
2022/06/13 10:44:59;;;;;;;63.22;50.50;;;23.00;55.80;;;;;;4914692;28;92801;-59
2022/06/13 10:47:37;;;;;;;68.88;53.50;;;23.00;56.00;;;;;;4933323;28;91975;-59
2022/06/13 10:50:08;;;;;;;65.65;51.95;;;23.00;56.00;;;;;;4926847;28;91798;-58
2022/06/13 10:52:36;;;;;;;;;;;23.00;56.10;;;;;;4929673;28;90759;-58
2022/06/13 10:55:09;;;;;;;64.72;51.00;;;23.00;56.20;;;;;;4932228;28;89569;-60
2022/06/13 10:58:13;;;;;;;66.90;51.35;;;23.00;56.20;;;;;;4928943;28;90069;-58
2022/06/13 11:00:41;;;;;;;65.68;50.85;;;23.00;56.30;;;;;;4926277;28;90116;-60
2022/06/13 11:03:15;;;;;;;65.00;51.55;;;23.00;56.30;;;;;;4925311;28;90795;-60
2022/06/13 11:06:06;;;;;;;64.47;50.88;;;23.00;56.30;;;;;;4925193;28;90332;-59
2022/06/13 11:08:33;;;;;;;65.43;51.28;;;23.10;56.40;;;;;;4935464;28;89296;-55
2022/06/13 11:11:03;;;;;;;66.13;51.10;;;23.10;56.30;;;;;;4927083;28;90734;-57
2022/06/13 11:13:36;;;;;;;65.20;51.00;;;23.00;56.40;;;;;;4930650;28;89945;-58
2022/06/13 11:24:39;;;;;;;66.72;50.83;;;23.00;55.80;;;;;;4927722;28;93302;-60
2022/06/13 11:30:31;;;;;;;66.80;50.72;;;23.10;55.70;;;;;;4928856;28;90082;-59
2022/06/13 11:33:09;;;;;;;63.40;50.55;;;23.10;56.10;;;;;;4934954;28;89797;-59
2022/06/13 11:35:35;;;;;;;63.13;50.72;;;23.10;56.10;;;;;;4929929;28;89261;-56
2022/06/13 11:38:21;;;;;;;65.60;50.72;;;23.10;56.00;;;;;;4927134;28;94168;-58
2022/06/13 11:41:09;;;;;;;64.82;50.58;;;23.10;56.00;;;;;;4925977;28;90488;-59
2022/06/13 11:43:45;;;;;;;65.63;50.83;;;23.10;56.10;;;;;;4912732;28;92998;-56
2022/06/13 11:46:31;;;;;;;64.30;50.75;;;23.20;56.00;;;;;;4928812;28;91773;-59
2022/06/13 11:49:05;;;;;;;63.92;50.75;;;23.10;56.10;;;;;;4929287;28;90354;-59
2022/06/13 11:51:49;;;;;;;67.53;50.85;;;23.10;55.90;;;;;;4924587;28;92417;-60
2022/06/13 11:54:40;;;;;;;65.47;50.92;;;23.20;56.10;;;;;;4933098;28;90033;-58
2022/06/13 11:57:15;;;;;;;;;;;23.20;56.10;;;;;;4929629;28;90664;-56
2022/06/13 11:59:59;;;;;;;64.75;50.92;;;23.20;56.20;;;;;;4934136;28;91128;-59
2022/06/13 12:02:44;;;;;;;64.82;50.65;;;23.20;56.10;;;;;;4927669;28;89399;-57
2022/06/13 12:05:22;;;;;;;65.88;50.70;;;23.20;55.80;;;;;;4932305;28;90905;-56
2022/06/13 12:08:14;;;;;;;65.53;50.78;;;23.20;56.00;;;;;;4937242;28;90535;-59
2022/06/13 12:10:45;;;;;;;;;;;23.20;56.20;;;;;;4930214;28;91783;-57
2022/06/13 12:13:15;;;;;;;63.70;50.78;;;23.20;56.30;;;;;;4937506;28;89586;-59
2022/06/13 12:15:50;;;;;;;65.05;50.97;;;23.20;56.30;;;;;;4926647;28;91030;-58
2022/06/13 12:18:35;;;;;;;63.40;50.65;;;23.20;56.30;;;;;;4926381;28;89933;-58
2022/06/13 12:21:05;;;;;;;63.67;50.75;;;23.20;56.10;;;;;;4929355;28;94021;-57
2022/06/13 12:23:35;;;;;;;63.97;50.67;;;23.30;56.10;;;;;;4928615;28;91795;-58
2022/06/13 12:26:21;;;;;;;64.97;51.03;;;23.30;56.00;;;;;;4931729;28;89542;-58
2022/06/13 12:29:06;;;;;;;64.85;50.85;;;23.20;55.80;;;;;;4933732;28;90776;-58
2022/06/13 12:31:42;;;;;;;65.60;51.03;;;23.20;55.80;;;;;;4920984;28;89916;-58
2022/06/13 12:34:19;;;;;;;65.38;50.85;;;23.30;55.70;;;;;;4928663;28;90589;-60
2022/06/13 12:37:03;;;;;;;64.35;50.53;;;23.30;55.50;;;;;;4918127;28;95921;-59
2022/06/13 12:39:49;;;;;;;64.18;50.60;;;23.20;55.30;;;;;;4926446;28;89935;-58
2022/06/13 12:42:23;;;;;;;64.55;50.88;;;23.30;55.30;;;;;;4931985;28;90583;-60
2022/06/13 12:45:17;;;;;;;64.38;50.85;;;23.30;55.70;;;;;;4928552;28;89959;-59
2022/06/13 12:47:48;;;;;;;65.72;50.78;;;23.30;55.10;;;;;;4937531;28;89904;-61
2022/06/13 12:50:29;;;;;;;64.18;50.90;;;23.30;55.10;;;;;;4938599;28;90021;-56
2022/06/13 12:53:16;;;;;;;65.47;50.72;;;23.30;54.90;;;;;;4932881;28;92573;-60
2022/06/13 12:56:02;;;;;;;65.13;51.00;;;23.30;54.70;;;;;;4930941;28;89858;-60
2022/06/13 12:58:46;;;;;;;64.32;50.85;;;23.30;54.50;;;;;;4923547;28;90320;-58
2022/06/13 13:01:21;;;;;;;65.70;50.95;;;23.30;54.50;;;;;;4922953;28;90808;-56
2022/06/13 13:03:50;;;;;;;67.30;50.83;;;23.40;54.60;;;;;;4925316;28;91726;-60
2022/06/13 13:06:22;;;;;;;64.65;50.60;;;23.40;54.40;;;;;;4924511;28;93073;-58
2022/06/13 13:09:08;;;;;;;63.97;50.90;;;23.40;54.30;;;;;;4929018;28;91831;-59
2022/06/13 13:11:42;;;;;;;63.58;50.63;;;23.40;54.10;;;;;;4927021;28;90031;-60
2022/06/13 13:14:13;;;;;;;64.85;50.65;;;23.40;54.00;;;;;;4928116;28;89942;-59
2022/06/13 13:17:00;;;;;;;64.57;50.75;;;23.40;54.00;;;;;;4928343;28;89733;-61
2022/06/13 13:19:59;;;;;;;64.97;50.75;;;23.40;53.90;;;;;;4929454;28;90286;-59
2022/06/13 13:22:30;;;;;;;64.20;50.83;;;23.40;53.90;;;;;;4928139;28;92440;-60
2022/06/13 13:25:14;;;;;;;64.85;50.80;;;23.40;53.60;;;;;;4929517;28;91122;-60
2022/06/13 13:28:08;;;;;;;64.78;50.92;;;23.40;53.40;;;;;;4917045;28;90751;-60
2022/06/13 13:30:46;;;;;;;63.67;50.53;;;23.50;53.40;;;;;;4918267;28;92055;-60